Time;durP1;ratioP1;P1;durP2;ratioP2;P2;SDS_P1;SDS_P2;PMS_P1;PMS_P2;Temp;Humidity;BMP_temperature;BMP_pressure;BME280_temperature;BME280_humidity;BME280_pressure;Samples;Min_cycle;Max_cycle;Signal;HPM_P1;HPM_P2
2021/12/29 00:01:12;;;;;;;;;;;;;;;-144.99;100.00;52603.00;5022941;28;19925;-59
2021/12/29 00:03:38;;;;;;;;;;;;;;;-144.99;100.00;52598.94;5024646;28;20040;-59
2021/12/29 00:06:06;;;;;;;;;;;;;;;-144.99;100.00;52598.94;5025391;28;19948;-60
2021/12/29 00:08:32;;;;;;;;;;;;;;;-144.99;100.00;52611.16;5023582;28;19929;-60
2021/12/29 00:10:59;;;;;;;;;;;;;;;-144.99;100.00;52603.00;5025567;28;20531;-60
2021/12/29 00:13:28;;;;;;;;;;;;;;;-144.99;100.00;52603.00;5025850;28;19924;-61
2021/12/29 00:15:57;;;;;;;;;;;;;;;-144.99;100.00;52603.00;5025980;28;19979;-60
2021/12/29 00:18:24;;;;;;;;;;;;;;;-144.99;100.00;52633.59;5024410;28;20576;-60
2021/12/29 00:20:50;;;;;;;;;;;;;;;-144.99;100.00;52607.09;5024277;28;19931;-60
2021/12/29 00:23:18;;;;;;;;;;;;;;;-144.99;100.00;52631.53;5025278;28;20002;-61
2021/12/29 00:25:44;;;;;;;;;;;;;;;-144.99;100.00;52594.84;5024927;28;19929;-61
2021/12/29 00:28:11;;;;;;;;;;;;;;;-144.99;100.00;52611.16;5025164;28;19979;-61
2021/12/29 00:30:37;;;;;;;;;;;;;;;-144.99;100.00;52617.28;5024661;28;19932;-61
2021/12/29 00:33:03;;;;;;;;;;;;;;;-144.99;100.00;52578.53;5025308;28;19929;-61
2021/12/29 00:35:30;;;;;;;;;;;;;;;-144.99;100.00;52627.47;5024280;28;19925;-60
2021/12/29 00:37:59;;;;;;;;;;;;;;;-144.99;100.00;52558.16;5027770;28;19964;-60
2021/12/29 00:40:27;;;;;;;;;;;;;;;-144.99;100.00;52598.94;5024124;28;19943;-60
2021/12/29 00:42:53;;;;;;;;;;;;;;;-144.99;100.00;52631.53;5024660;28;20024;-59
2021/12/29 00:45:19;;;;;;;;;;;;;;;-144.99;100.00;52598.94;5024467;28;19921;-59
2021/12/29 00:47:46;;;;;;;;;;;;;;;-144.99;100.00;52594.84;5024677;28;19921;-59
2021/12/29 00:50:15;;;;;;;;;;;;;;;-144.99;100.00;52611.16;5023437;28;20378;-59
2021/12/29 00:52:42;;;;;;;;;;;;;;;-144.99;100.00;52623.38;5021142;28;19928;-59
2021/12/29 00:55:12;;;;;;;;;;;;;;;-144.99;100.00;52590.78;5025242;28;19920;-59
2021/12/29 00:57:39;;;;;;;;;;;;;;;-144.99;100.00;52607.09;5024727;28;19928;-59
2021/12/29 01:00:07;;;;;;;;;;;;;;;-144.99;100.00;52596.88;5023469;28;20053;-60
2021/12/29 01:02:33;;;;;;;;;;;;;;;-144.99;100.00;52590.78;5026109;28;19921;-60
2021/12/29 01:05:00;;;;;;;;;;;;;;;-144.99;100.00;52596.88;5029144;28;19929;-62
2021/12/29 01:07:26;;;;;;;;;;;;;;;-144.99;100.00;52590.78;5028845;28;19931;-62
2021/12/29 01:09:53;;;;;;;;;;;;;;;-144.99;100.00;52570.38;5027475;28;19925;-61
2021/12/29 01:12:19;;;;;;;;;;;;;;;-144.99;100.00;52668.22;5028424;28;19927;-65
2021/12/29 01:14:53;;;;;;;;;;;;;;;-144.99;100.00;52603.00;5025337;28;19929;-63
2021/12/29 01:17:20;;;;;;;;;;;;;;;-144.99;100.00;52600.97;5027797;28;19975;-63
2021/12/29 01:19:47;;;;;;;;;;;;;;;-144.99;100.00;52619.31;5027371;28;19924;-63
2021/12/29 01:22:13;;;;;;;;;;;;;;;-144.99;100.00;52615.25;5026647;28;19967;-64
2021/12/29 01:24:40;;;;;;;;;;;;;;;-144.99;100.00;52627.47;5025366;28;19921;-63
2021/12/29 01:27:06;;;;;;;;;;;;;;;-144.99;100.00;52594.84;5027969;28;19921;-62
2021/12/29 01:29:32;;;;;;;;;;;;;;;-144.99;100.00;52598.94;5027745;28;19921;-61
2021/12/29 01:32:00;;;;;;;;;;;;;;;-144.99;100.00;52631.53;5026527;28;19993;-63
2021/12/29 01:34:29;;;;;;;;;;;;;;;-144.99;100.00;52656.00;5030520;28;19921;-63
2021/12/29 01:36:57;;;;;;;;;;;;;;;-144.99;100.00;52621.34;5027735;28;19936;-62
2021/12/29 01:39:23;;;;;;;;;;;;;;;-144.99;100.00;52615.25;5027506;28;19981;-62
2021/12/29 01:41:52;;;;;;;;;;;;;;;-144.99;100.00;52609.13;5026701;28;19941;-60
2021/12/29 01:44:21;;;;;;;;;;;;;;;-144.99;100.00;52631.53;5027325;28;19925;-60
2021/12/29 01:46:47;;;;;;;;;;;;;;;-144.99;100.00;52615.25;5027695;28;20313;-61
2021/12/29 01:52:01;;;;;;;;;;;;;;;-144.99;100.00;52603.00;4735578;28;10000454;-60
2021/12/29 01:54:34;;;;;;;;;;;;;;;-144.99;100.00;52586.69;5089204;28;19920;-60
2021/12/29 01:57:00;;;;;;;;;;;;;;;-144.99;100.00;52623.38;5089777;28;20077;-60
2021/12/29 01:59:27;;;;;;;;;;;;;;;-144.99;100.00;52576.50;5090393;28;19931;-61
2021/12/29 02:01:54;;;;;;;;;;;;;;;-144.99;100.00;52615.25;5089254;28;19927;-59
2021/12/29 02:04:21;;;;;;;;;;;;;;;-144.99;100.00;52598.94;5090481;28;19931;-59
2021/12/29 02:06:47;;;;;;;;;;;;;;;-144.99;100.00;52631.53;5092170;28;19931;-58
2021/12/29 02:09:15;;;;;;;;;;;;;;;-144.99;100.00;52590.78;5092067;28;19920;-59
2021/12/29 02:11:42;;;;;;;;;;;;;;;-144.99;100.00;52598.94;5090604;28;19927;-60
2021/12/29 02:14:09;;;;;;;;;;;;;;;-144.99;100.00;52611.16;5090023;28;19920;-62
2021/12/29 02:16:38;;;;;;;;;;;;;;;-144.99;100.00;52609.13;5091510;28;20312;-59
2021/12/29 02:19:07;;;;;;;;;;;;;;;-144.99;100.00;52603.00;5088421;28;19943;-59
2021/12/29 02:21:35;;;;;;;;;;;;;;;-144.99;100.00;52605.03;5092077;28;19959;-59
2021/12/29 02:24:18;;;;;;;;;;;;;;;-144.99;100.00;52590.78;5089100;28;20396;-59
2021/12/29 02:26:45;;;;;;;;;;;;;;;-144.99;100.00;52635.63;5088999;28;19946;-60
2021/12/29 02:29:12;;;;;;;;;;;;;;;-144.99;100.00;52596.88;5090136;28;19931;-61
2021/12/29 02:31:42;;;;;;;;;;;;;;;-144.99;100.00;52564.28;5092068;28;19962;-60
2021/12/29 02:34:09;;;;;;;;;;;;;;;-144.99;100.00;52609.13;5086518;28;20388;-58
2021/12/29 02:36:43;;;;;;;;;;;;;;;-144.99;100.00;52600.97;5092029;28;19947;-60
2021/12/29 02:39:09;;;;;;;;;;;;;;;-144.99;100.00;52623.38;5089915;28;19924;-58
2021/12/29 02:41:36;;;;;;;;;;;;;;;-144.99;100.00;52674.34;5092759;28;19932;-59
2021/12/29 02:44:10;;;;;;;;;;;;;;;-144.99;100.00;52594.84;5092065;28;19932;-60
2021/12/29 02:46:38;;;;;;;;;;;;;;;-144.99;100.00;52627.47;5092445;28;19981;-60
2021/12/29 02:49:04;;;;;;;;;;;;;;;-144.99;100.00;52607.09;5091305;28;20304;-61
2021/12/29 02:51:32;;;;;;;;;;;;;;;-144.99;100.00;52590.78;5092009;28;19943;-61
2021/12/29 02:54:02;;;;;;;;;;;;;;;-144.99;100.00;52609.13;5091216;28;19924;-60
2021/12/29 02:56:29;;;;;;;;;;;;;;;-144.99;100.00;52643.78;5091417;28;19924;-60
2021/12/29 02:58:55;;;;;;;;;;;;;;;-144.99;100.00;52566.31;5091681;28;19928;-60
2021/12/29 03:01:23;;;;;;;;;;;;;;;-144.99;100.00;52598.94;5089962;28;19930;-60
2021/12/29 03:03:49;;;;;;;;;;;;;;;-144.99;100.00;52607.09;5091953;28;19928;-61
2021/12/29 03:06:16;;;;;;;;;;;;;;;-144.99;100.00;52603.00;5093153;28;19935;-61
2021/12/29 03:08:42;;;;;;;;;;;;;;;-144.99;100.00;52619.31;5094205;28;20349;-61
2021/12/29 03:11:10;;;;;;;;;;;;;;;-144.99;100.00;52594.84;5095055;28;20045;-61
2021/12/29 03:13:38;;;;;;;;;;;;;;;-144.99;100.00;52590.78;5098175;28;19959;-61
2021/12/29 03:16:05;;;;;;;;;;;;;;;-144.99;100.00;52578.53;5098557;28;19924;-63
2021/12/29 03:18:32;;;;;;;;;;;;;;;-144.99;100.00;52611.16;5101534;28;20014;-63
2021/12/29 03:20:58;;;;;;;;;;;;;;;-144.99;100.00;52598.94;5097003;28;19949;-62
2021/12/29 03:23:25;;;;;;;;;;;;;;;-144.99;100.00;52631.53;5098674;28;19928;-64
2021/12/29 03:25:52;;;;;;;;;;;;;;;-144.99;100.00;52617.28;5101293;28;19946;-62
2021/12/29 03:28:27;;;;;;;;;;;;;;;-144.99;100.00;52639.69;5101018;28;19961;-64
2021/12/29 03:30:55;;;;;;;;;;;;;;;-144.99;100.00;52639.69;5093408;28;19924;-59
2021/12/29 03:33:22;;;;;;;;;;;;;;;-144.99;100.00;52607.09;5095254;28;19931;-60
2021/12/29 03:35:50;;;;;;;;;;;;;;;-144.99;100.00;52590.78;5095309;28;20069;-59
2021/12/29 03:38:19;;;;;;;;;;;;;;;-144.99;100.00;52643.78;5096016;28;19978;-58
2021/12/29 03:40:45;;;;;;;;;;;;;;;-144.99;100.00;52594.84;5094599;28;19928;-60
2021/12/29 03:43:13;;;;;;;;;;;;;;;-144.99;100.00;52592.81;5091591;28;19924;-60
2021/12/29 03:45:41;;;;;;;;;;;;;;;-144.99;100.00;52629.50;5093724;28;19935;-58
2021/12/29 03:48:08;;;;;;;;;;;;;;;-144.99;100.00;52594.84;5093616;28;19974;-61
2021/12/29 03:50:35;;;;;;;;;;;;;;;-144.99;100.00;52619.31;5094949;28;20261;-56
2021/12/29 03:53:02;;;;;;;;;;;;;;;-144.99;100.00;52635.63;5094202;28;20010;-57
2021/12/29 03:55:28;;;;;;;;;;;;;;;-144.99;100.00;52627.47;5093053;28;19924;-57
2021/12/29 03:57:54;;;;;;;;;;;;;;;-144.99;100.00;52619.31;5093014;28;20328;-58
2021/12/29 04:00:21;;;;;;;;;;;;;;;-144.99;100.00;52635.63;5092877;28;20381;-57
2021/12/29 04:02:49;;;;;;;;;;;;;;;-144.99;100.00;52586.69;5090027;28;20327;-57
2021/12/29 04:05:17;;;;;;;;;;;;;;;-144.99;100.00;52603.00;5090524;28;19924;-56
2021/12/29 04:07:44;;;;;;;;;;;;;;;-144.99;100.00;52627.47;5090665;28;19951;-60
2021/12/29 04:10:11;;;;;;;;;;;;;;;-144.99;100.00;52623.38;5090106;28;19928;-59
2021/12/29 04:12:39;;;;;;;;;;;;;;;-144.99;100.00;52586.69;5088466;28;20020;-58
2021/12/29 04:15:06;;;;;;;;;;;;;;;-144.99;100.00;52570.38;5089963;28;20134;-59
2021/12/29 04:17:37;;;;;;;;;;;;;;;-144.99;100.00;52609.13;5090517;28;19993;-59
2021/12/29 04:22:50;;;;;;;;;;;;;;;-144.99;100.00;52586.69;5087148;28;19939;-59
2021/12/29 04:25:18;;;;;;;;;;;;;;;-144.99;100.00;52582.63;5088682;28;19924;-59
2021/12/29 04:27:46;;;;;;;;;;;;;;;-144.99;100.00;52611.16;5090360;28;19927;-59
2021/12/29 04:30:13;;;;;;;;;;;;;;;-144.99;100.00;52611.16;5089590;28;20014;-60
2021/12/29 04:32:39;;;;;;;;;;;;;;;-144.99;100.00;52605.03;5090426;28;20415;-59
2021/12/29 04:35:09;;;;;;;;;;;;;;;-144.99;100.00;52625.44;5087585;28;19939;-61
2021/12/29 04:37:35;;;;;;;;;;;;;;;-144.99;100.00;52617.28;5089866;28;19955;-62
2021/12/29 04:40:01;;;;;;;;;;;;;;;-144.99;100.00;52598.94;5090109;28;19924;-63
2021/12/29 04:42:28;;;;;;;;;;;;;;;-144.99;100.00;52635.63;5090316;28;19924;-63
2021/12/29 04:44:54;;;;;;;;;;;;;;;-144.99;100.00;52625.44;5088214;28;19928;-62
2021/12/29 04:47:27;;;;;;;;;;;;;;;-144.99;100.00;52611.16;5090216;28;19931;-61
2021/12/29 04:49:54;;;;;;;;;;;;;;;-144.99;100.00;52598.94;5089608;28;19931;-62
2021/12/29 04:52:21;;;;;;;;;;;;;;;-144.99;100.00;52607.09;5089947;28;19931;-62
2021/12/29 04:54:48;;;;;;;;;;;;;;;-144.99;100.00;52586.69;5085078;28;19924;-61
2021/12/29 04:57:15;;;;;;;;;;;;;;;-144.99;100.00;52590.78;5088562;28;20019;-62
2021/12/29 04:59:42;;;;;;;;;;;;;;;-144.99;100.00;52609.13;5090070;28;19930;-63
2021/12/29 05:02:09;;;;;;;;;;;;;;;-144.99;100.00;52623.38;5089896;28;20404;-62
2021/12/29 05:04:45;;;;;;;;;;;;;;;-144.99;100.00;52594.84;5088408;28;19932;-64
2021/12/29 05:10:06;;;;;;;;;;;;;;;-144.99;100.00;52605.03;5087957;28;19931;-62
2021/12/29 05:12:32;;;;;;;;;;;;;;;-144.99;100.00;52639.69;5089098;28;19931;-61
2021/12/29 05:14:59;;;;;;;;;;;;;;;-144.99;100.00;52623.38;5090789;28;20014;-61
2021/12/29 05:17:25;;;;;;;;;;;;;;;-144.99;100.00;52607.09;5090603;28;20400;-59
2021/12/29 05:19:52;;;;;;;;;;;;;;;-144.99;100.00;52619.31;5091287;28;19935;-61
2021/12/29 05:22:18;;;;;;;;;;;;;;;-144.99;100.00;52605.03;5088101;28;19932;-60
2021/12/29 05:24:45;;;;;;;;;;;;;;;-144.99;100.00;52611.16;5089718;28;19939;-62
2021/12/29 05:27:12;;;;;;;;;;;;;;;-144.99;100.00;52611.16;5090782;28;20695;-62
2021/12/29 05:29:39;;;;;;;;;;;;;;;-144.99;100.00;52615.25;5089795;28;19924;-59
2021/12/29 05:32:06;;;;;;;;;;;;;;;-144.99;100.00;52627.47;5087234;28;20361;-60
2021/12/29 05:34:33;;;;;;;;;;;;;;;-144.99;100.00;52631.53;5088941;28;19956;-58
2021/12/29 05:36:59;;;;;;;;;;;;;;;-144.99;100.00;52594.84;5089256;28;19935;-59
2021/12/29 05:39:26;;;;;;;;;;;;;;;-144.99;100.00;52570.38;5089224;28;19979;-60
2021/12/29 05:41:52;;;;;;;;;;;;;;;-144.99;100.00;52607.09;5088071;28;20339;-60
2021/12/29 05:44:20;;;;;;;;;;;;;;;-144.99;100.00;52562.25;5088764;28;19924;-60
2021/12/29 05:46:46;;;;;;;;;;;;;;;-144.99;100.00;52586.69;5089615;28;20477;-60
2021/12/29 05:49:14;;;;;;;;;;;;;;;-144.99;100.00;52615.25;5091050;28;20372;-60
2021/12/29 05:51:41;;;;;;;;;;;;;;;-144.99;100.00;52603.00;5092428;28;19928;-60
2021/12/29 05:54:07;;;;;;;;;;;;;;;-144.99;100.00;52643.78;5091786;28;19924;-61
2021/12/29 05:56:33;;;;;;;;;;;;;;;-144.99;100.00;52607.09;5091159;28;19924;-61
2021/12/29 05:59:01;;;;;;;;;;;;;;;-144.99;100.00;52631.53;5092669;28;19931;-61
2021/12/29 06:01:31;;;;;;;;;;;;;;;-144.99;100.00;52590.78;5092966;28;19924;-61
2021/12/29 06:03:57;;;;;;;;;;;;;;;-144.99;100.00;52611.16;5091120;28;20357;-60
2021/12/29 06:06:23;;;;;;;;;;;;;;;-144.99;100.00;52607.09;5093768;28;19924;-60
2021/12/29 06:08:50;;;;;;;;;;;;;;;-144.99;100.00;52647.84;5094322;28;19924;-60
2021/12/29 06:11:16;;;;;;;;;;;;;;;-144.99;100.00;52627.47;5094022;28;19924;-60
2021/12/29 06:13:43;;;;;;;;;;;;;;;-144.99;100.00;52619.31;5089595;28;19924;-60
2021/12/29 06:16:12;;;;;;;;;;;;;;;-144.99;100.00;52615.25;5092387;28;19928;-59
2021/12/29 06:18:39;;;;;;;;;;;;;;;-144.99;100.00;52623.38;5095328;28;19928;-61
2021/12/29 06:21:06;;;;;;;;;;;;;;;-144.99;100.00;52629.50;5091724;28;20397;-59
2021/12/29 06:23:32;;;;;;;;;;;;;;;-144.99;100.00;52607.09;5092618;28;19931;-60
2021/12/29 06:25:58;;;;;;;;;;;;;;;-144.99;100.00;52647.84;5093004;28;19939;-60
2021/12/29 06:28:25;;;;;;;;;;;;;;;-144.99;100.00;52580.59;5093616;28;19925;-60
2021/12/29 06:30:51;;;;;;;;;;;;;;;-144.99;100.00;52623.38;5089515;28;19924;-60
2021/12/29 06:33:18;;;;;;;;;;;;;;;-144.99;100.00;52570.38;5090172;28;20064;-60
2021/12/29 06:35:45;;;;;;;;;;;;;;;-144.99;100.00;52627.47;5091703;28;19939;-60
2021/12/29 06:38:12;;;;;;;;;;;;;;;-144.99;100.00;52631.53;5092061;28;20300;-60
2021/12/29 06:40:38;;;;;;;;;;;;;;;-144.99;100.00;52598.94;5091817;28;19997;-60
2021/12/29 06:43:05;;;;;;;;;;;;;;;-144.99;100.00;52627.47;5090582;28;19935;-60
2021/12/29 06:45:31;;;;;;;;;;;;;;;-144.99;100.00;52588.75;5092949;28;19924;-60
2021/12/29 06:47:57;;;;;;;;;;;;;;;-144.99;100.00;52623.38;5094837;28;19924;-59
2021/12/29 06:50:24;;;;;;;;;;;;;;;-144.99;100.00;52607.09;5093393;28;20300;-59
2021/12/29 06:52:52;;;;;;;;;;;;;;;-144.99;100.00;52643.78;5090894;28;19924;-60
2021/12/29 06:55:20;;;;;;;;;;;;;;;-144.99;100.00;52631.53;5092262;28;20307;-60
2021/12/29 06:57:46;;;;;;;;;;;;;;;-144.99;100.00;52635.63;5091131;28;19971;-60
2021/12/29 07:00:13;;;;;;;;;;;;;;;-144.99;100.00;52619.31;5084665;28;19924;-61
2021/12/29 07:02:39;;;;;;;;;;;;;;;-144.99;100.00;52635.63;5088762;28;19943;-61
2021/12/29 07:05:06;;;;;;;;;;;;;;;-144.99;100.00;52651.94;5090198;28;19924;-58
2021/12/29 07:07:32;;;;;;;;;;;;;;;-144.99;100.00;52623.38;5090606;28;20031;-58
2021/12/29 07:10:00;;;;;;;;;;;;;;;-144.99;100.00;52607.09;5090106;28;19924;-58
2021/12/29 07:12:27;;;;;;;;;;;;;;;-144.99;100.00;52623.38;5090711;28;19925;-59
2021/12/29 07:14:53;;;;;;;;;;;;;;;-144.99;100.00;52647.84;5087641;28;20297;-58
2021/12/29 07:17:19;;;;;;;;;;;;;;;-144.99;100.00;52635.63;5088355;28;19937;-59
2021/12/29 07:19:46;;;;;;;;;;;;;;;-144.99;100.00;52598.94;5090282;28;21335;-58
2021/12/29 07:22:12;;;;;;;;;;;;;;;-144.99;100.00;52643.78;5098427;28;19924;-59
2021/12/29 07:24:38;;;;;;;;;;;;;;;-144.99;100.00;52641.72;5088620;28;19943;-57
2021/12/29 07:27:06;;;;;;;;;;;;;;;-144.99;100.00;52603.00;5094883;28;19924;-57
2021/12/29 07:29:33;;;;;;;;;;;;;;;-144.99;100.00;52635.63;5097787;28;20385;-57
2021/12/29 07:32:02;;;;;;;;;;;;;;;-144.99;100.00;52623.38;5098241;28;19931;-58
2021/12/29 07:34:29;;;;;;;;;;;;;;;-144.99;100.00;52651.94;5096673;28;19932;-58
2021/12/29 07:36:55;;;;;;;;;;;;;;;-144.99;100.00;52635.63;5096910;28;19928;-58
2021/12/29 07:39:22;;;;;;;;;;;;;;;-144.99;100.00;52627.47;5096620;28;20091;-58
2021/12/29 07:41:49;;;;;;;;;;;;;;;-144.99;100.00;52588.75;5098899;28;19928;-58
2021/12/29 07:44:17;;;;;;;;;;;;;;;-144.99;100.00;52615.25;5094206;28;19947;-57
2021/12/29 07:46:45;;;;;;;;;;;;;;;-144.99;100.00;52615.25;5093429;28;20357;-57
2021/12/29 07:49:12;;;;;;;;;;;;;;;-144.99;100.00;52629.50;5091851;28;19924;-58
2021/12/29 07:51:40;;;;;;;;;;;;;;;-144.99;100.00;52621.34;5009285;22;1811495;-58
2021/12/29 07:54:06;;;;;;;;;;;;;;;-144.99;100.00;52590.78;5046693;28;19971;-57
2021/12/29 07:56:33;;;;;;;;;;;;;;;-144.99;100.00;52615.25;5046660;28;19956;-58
2021/12/29 07:58:59;;;;;;;;;;;;;;;-144.99;100.00;52594.84;5047974;28;19925;-58
2021/12/29 08:01:27;;;;;;;;;;;;;;;-144.99;100.00;52613.19;5048556;28;19931;-57
2021/12/29 08:03:53;;;;;;;;;;;;;;;-144.99;100.00;52586.69;5048110;28;20163;-58
2021/12/29 08:06:20;;;;;;;;;;;;;;;-144.99;100.00;52586.69;5047208;28;20430;-58
2021/12/29 08:08:46;;;;;;;;;;;;;;;-144.99;100.00;52613.19;5047849;28;19965;-61
2021/12/29 08:11:13;;;;;;;;;;;;;;;-144.99;100.00;52623.38;5048570;28;19932;-61
2021/12/29 08:13:39;;;;;;;;;;;;;;;-144.99;100.00;52623.38;5048013;28;20028;-61
2021/12/29 08:16:06;;;;;;;;;;;;;;;-144.99;100.00;52615.25;5045844;28;20464;-61
2021/12/29 08:18:34;;;;;;;;;;;;;;;-144.99;100.00;52631.53;5047935;28;20397;-64
2021/12/29 08:21:00;;;;;;;;;;;;;;;-144.99;100.00;52605.03;5048075;28;19925;-64
2021/12/29 08:23:26;;;;;;;;;;;;;;;-144.99;100.00;52586.69;5048038;28;19932;-66
2021/12/29 08:25:53;;;;;;;;;;;;;;;-144.99;100.00;52633.59;5046455;28;19924;-64
2021/12/29 08:28:20;;;;;;;;;;;;;;;-144.99;100.00;52619.31;5048131;28;19932;-65
2021/12/29 08:30:49;;;;;;;;;;;;;;;-144.99;100.00;52633.59;5048362;28;19925;-65
2021/12/29 08:33:18;;;;;;;;;;;;;;;-144.99;100.00;52619.31;5040668;28;19925;-66
2021/12/29 08:35:45;;;;;;;;;;;;;;;-144.99;100.00;52623.38;5046267;28;19925;-69
2021/12/29 08:38:12;;;;;;;;;;;;;;;-144.99;100.00;52603.00;5047633;28;19932;-64
2021/12/29 08:40:38;;;;;;;;;;;;;;;-144.99;100.00;52586.69;5043676;28;19932;-63
2021/12/29 08:43:04;;;;;;;;;;;;;;;-144.99;100.00;52611.16;5047948;28;20020;-65
2021/12/29 08:45:32;;;;;;;;;;;;;;;-144.99;100.00;52639.69;5048070;28;19924;-64
2021/12/29 08:47:59;;;;;;;;;;;;;;;-144.99;100.00;52603.00;5046079;28;20306;-62
2021/12/29 08:50:29;;;;;;;;;;;;;;;-144.99;100.00;52643.78;5047338;28;19971;-63
2021/12/29 08:52:57;;;;;;;;;;;;;;;-144.99;100.00;52651.94;5047451;28;19990;-63
2021/12/29 08:55:24;;;;;;;;;;;;;;;-144.99;100.00;52594.84;5047176;28;19925;-63
2021/12/29 08:57:50;;;;;;;;;;;;;;;-144.99;100.00;52635.63;5044530;28;19925;-64
2021/12/29 09:00:17;;;;;;;;;;;;;;;-144.99;100.00;52611.16;5047668;28;19925;-63
2021/12/29 09:02:43;;;;;;;;;;;;;;;-144.99;100.00;52582.63;5047378;28;20008;-62
2021/12/29 09:05:10;;;;;;;;;;;;;;;-144.99;100.00;52603.00;5047199;28;19924;-62
2021/12/29 09:07:37;;;;;;;;;;;;;;;-144.99;100.00;52631.53;5045249;28;19936;-62
2021/12/29 09:10:07;;;;;;;;;;;;;;;-144.99;100.00;52590.78;5047233;28;19929;-61
2021/12/29 09:12:33;;;;;;;;;;;;;;;-144.99;100.00;52623.38;5047468;28;19928;-62
2021/12/29 09:14:59;;;;;;;;;;;;;;;-144.99;100.00;52576.50;5047504;28;20146;-61
2021/12/29 09:17:27;;;;;;;;;;;;;;;-144.99;100.00;52649.88;5045443;28;19925;-62
2021/12/29 09:19:53;;;;;;;;;;;;;;;-144.99;100.00;52574.47;5045202;28;20248;-62
2021/12/29 09:22:20;;;;;;;;;;;;;;;-144.99;100.00;52647.84;5047644;28;19978;-62
2021/12/29 09:24:46;;;;;;;;;;;;;;;-144.99;100.00;52586.69;5049899;28;19935;-62
2021/12/29 09:27:15;;;;;;;;;;;;;;;-144.99;100.00;52586.69;5051633;28;19967;-65
2021/12/29 09:29:42;;;;;;;;;;;;;;;-144.99;100.00;52623.38;5049573;28;20079;-62
2021/12/29 09:32:08;;;;;;;;;;;;;;;-144.99;100.00;52617.28;5051312;28;19939;-63
2021/12/29 09:34:35;;;;;;;;;;;;;;;-144.99;100.00;52590.78;5050367;28;19924;-70
2021/12/29 09:37:02;;;;;;;;;;;;;;;-144.99;100.00;52607.09;5051817;28;20333;-71
2021/12/29 09:39:28;;;;;;;;;;;;;;;-144.99;100.00;52633.59;5049534;28;19948;-69
2021/12/29 09:41:55;;;;;;;;;;;;;;;-144.99;100.00;52607.09;5051373;28;20397;-70
2021/12/29 09:44:22;;;;;;;;;;;;;;;-144.99;100.00;52596.88;5050311;28;19947;-70
2021/12/29 09:46:49;;;;;;;;;;;;;;;-144.99;100.00;52623.38;5045081;28;19929;-70
2021/12/29 09:49:15;;;;;;;;;;;;;;;-144.99;100.00;52639.69;5045646;28;19932;-70
2021/12/29 09:51:42;;;;;;;;;;;;;;;-144.99;100.00;52615.25;5046853;28;20330;-70
2021/12/29 09:54:08;;;;;;;;;;;;;;;-144.99;100.00;52635.63;5050196;28;20001;-70
2021/12/29 09:56:34;;;;;;;;;;;;;;;-144.99;100.00;52615.25;5049362;28;19932;-71
2021/12/29 09:59:03;;;;;;;;;;;;;;;-144.99;100.00;52623.38;5045959;28;19925;-70
2021/12/29 10:01:31;;;;;;;;;;;;;;;-144.99;100.00;52670.28;5050904;28;19937;-71
2021/12/29 10:03:57;;;;;;;;;;;;;;;-144.99;100.00;52607.09;5050768;28;19936;-70
2021/12/29 10:06:23;;;;;;;;;;;;;;;-144.99;100.00;52619.31;5051683;28;19925;-70
2021/12/29 10:08:50;;;;;;;;;;;;;;;-144.99;100.00;52635.63;5049473;28;20365;-72
2021/12/29 10:11:18;;;;;;;;;;;;;;;-144.99;100.00;52598.94;5051435;28;20298;-71
2021/12/29 10:13:48;;;;;;;;;;;;;;;-144.99;100.00;52586.69;5050850;28;19932;-70
2021/12/29 10:16:17;;;;;;;;;;;;;;;-144.99;100.00;52674.34;5047525;28;19969;-70
2021/12/29 10:18:48;;;;;;;;;;;;;;;-144.99;100.00;52611.16;5049781;28;20027;-73
2021/12/29 10:21:15;;;;;;;;;;;;;;;-144.99;100.00;52623.38;5051324;28;20127;-71
2021/12/29 10:23:42;;;;;;;;;;;;;;;-144.99;100.00;52588.75;5050282;28;19928;-70
2021/12/29 10:26:11;;;;;;;;;;;;;;;-144.99;100.00;52598.94;5046185;28;19951;-70
2021/12/29 10:28:40;;;;;;;;;;;;;;;-144.99;100.00;52615.25;5050225;28;19931;-70
2021/12/29 10:31:08;;;;;;;;;;;;;;;-144.99;100.00;52656.00;5050646;28;20390;-68
2021/12/29 10:33:37;;;;;;;;;;;;;;;-144.99;100.00;52633.59;5050530;28;19955;-69
2021/12/29 10:36:15;;;;;;;;;;;;;;;-144.99;100.00;52619.31;5049953;28;19928;-69
2021/12/29 10:38:42;;;;;;;;;;;;;;;-144.99;100.00;52590.78;5049549;28;20425;-70
2021/12/29 10:41:09;;;;;;;;;;;;;;;-144.99;100.00;52619.31;5050182;28;20334;-70
2021/12/29 10:43:35;;;;;;;;;;;;;;;-144.99;100.00;52611.16;5050516;28;19928;-70
2021/12/29 10:46:02;;;;;;;;;;;;;;;-144.99;100.00;52647.84;5050297;28;19924;-70
2021/12/29 10:48:30;;;;;;;;;;;;;;;-144.99;100.00;52603.00;5049821;28;19936;-70
2021/12/29 10:50:58;;;;;;;;;;;;;;;-144.99;100.00;52603.00;5049830;28;19935;-69
2021/12/29 10:53:26;;;;;;;;;;;;;;;-144.99;100.00;52613.19;5050544;28;19924;-70
2021/12/29 10:55:52;;;;;;;;;;;;;;;-144.99;100.00;52607.09;5049231;28;19925;-70
2021/12/29 10:58:20;;;;;;;;;;;;;;;-144.99;100.00;52600.97;5050160;28;19932;-70
2021/12/29 11:00:48;;;;;;;;;;;;;;;-144.99;100.00;52651.94;5049463;28;20334;-71
2021/12/29 11:03:15;;;;;;;;;;;;;;;-144.99;100.00;52603.00;5049735;28;20324;-71
2021/12/29 11:05:43;;;;;;;;;;;;;;;-144.99;100.00;52611.16;5049516;28;19925;-70
2021/12/29 11:08:10;;;;;;;;;;;;;;;-144.99;100.00;52580.59;5049226;28;20306;-70
2021/12/29 11:10:38;;;;;;;;;;;;;;;-144.99;100.00;52582.63;5045461;28;19929;-71
2021/12/29 11:13:05;;;;;;;;;;;;;;;-144.99;100.00;52631.53;5049419;28;19935;-70
2021/12/29 11:15:33;;;;;;;;;;;;;;;-144.99;100.00;52611.16;5049200;28;19925;-71
2021/12/29 11:18:04;;;;;;;;;;;;;;;-144.99;100.00;52582.63;5049533;28;20421;-70
2021/12/29 11:20:32;;;;;;;;;;;;;;;-144.99;100.00;52578.53;5049254;28;19925;-71
2021/12/29 11:23:04;;;;;;;;;;;;;;;-144.99;100.00;52603.00;5046322;28;19925;-72
2021/12/29 11:25:31;;;;;;;;;;;;;;;-144.99;100.00;52607.09;5048875;28;19940;-69
2021/12/29 11:28:00;;;;;;;;;;;;;;;-144.99;100.00;52635.63;5048841;28;19925;-71
2021/12/29 11:30:30;;;;;;;;;;;;;;;-144.99;100.00;52619.31;5048976;28;19925;-70
2021/12/29 11:33:04;;;;;;;;;;;;;;;-144.99;100.00;52619.31;5048891;28;19996;-71
2021/12/29 11:35:30;;;;;;;;;;;;;;;-144.99;100.00;52598.94;5048852;28;19928;-70
2021/12/29 11:37:59;;;;;;;;;;;;;;;-144.99;100.00;52580.59;5048708;28;19931;-72
2021/12/29 11:40:27;;;;;;;;;;;;;;;-144.99;100.00;52586.69;5048475;28;19925;-70
2021/12/29 11:42:54;;;;;;;;;;;;;;;-144.99;100.00;52590.78;5048515;28;19925;-70
2021/12/29 11:45:22;;;;;;;;;;;;;;;-144.99;100.00;52668.22;5048467;28;19929;-71
2021/12/29 11:47:49;;;;;;;;;;;;;;;-144.99;100.00;52613.19;5048522;28;19929;-70
2021/12/29 11:50:19;;;;;;;;;;;;;;;-144.99;100.00;52594.84;5047685;28;20330;-70
2021/12/29 11:52:59;;;;;;;;;;;;;;;-144.99;100.00;52603.00;5049405;28;20031;-70
2021/12/29 11:55:29;;;;;;;;;;;;;;;-144.99;100.00;52590.78;5046973;28;19947;-70
2021/12/29 11:57:55;;;;;;;;;;;;;;;-144.99;100.00;52617.28;5048596;28;19953;-70
2021/12/29 12:00:24;;;;;;;;;;;;;;;-144.99;100.00;52621.34;5048422;28;19929;-70
2021/12/29 12:02:53;;;;;;;;;;;;;;;-144.99;100.00;52611.16;5048091;28;20028;-71
2021/12/29 12:05:22;;;;;;;;;;;;;;;-144.99;100.00;52635.63;5047435;28;19925;-71
2021/12/29 12:07:48;;;;;;;;;;;;;;;-144.99;100.00;52600.97;5049096;28;19975;-70
2021/12/29 12:10:25;;;;;;;;;;;;;;;-144.99;100.00;52619.31;5047543;28;20393;-70
2021/12/29 12:12:53;;;;;;;;;;;;;;;-144.99;100.00;52578.53;5048261;28;20389;-72
2021/12/29 12:15:29;;;;;;;;;;;;;;;-144.99;100.00;52600.97;5048661;28;20015;-69
2021/12/29 12:17:56;;;;;;;;;;;;;;;-144.99;100.00;52611.16;5048987;28;19925;-71
2021/12/29 12:20:22;;;;;;;;;;;;;;;-144.99;100.00;52619.31;5047780;28;19967;-70
2021/12/29 12:22:50;;;;;;;;;;;;;;;-144.99;100.00;52598.94;5045927;28;19994;-71
2021/12/29 12:25:18;;;;;;;;;;;;;;;-144.99;100.00;52590.78;5047821;28;19929;-70
2021/12/29 12:27:48;;;;;;;;;;;;;;;-144.99;100.00;52586.69;5048688;28;19959;-69